Time;durP1;ratioP1;P1;durP2;ratioP2;P2;SDS_P1;SDS_P2;PMS_P1;PMS_P2;Temp;Humidity;BMP_temperature;BMP_pressure;BME280_temperature;BME280_humidity;BME280_pressure;Samples;Min_cycle;Max_cycle;Signal;HPM_P1;HPM_P2
2022/10/21 00:00:24;;;;;;;36.30;23.47;;;15.00;99.90;;;;;;5049191;28;20387;-74
2022/10/21 00:02:50;;;;;;;38.88;23.00;;;15.00;99.90;;;;;;5047266;28;20437;-74
2022/10/21 00:05:15;;;;;;;38.35;24.30;;;14.90;99.90;;;;;;5047475;28;20379;-73
2022/10/21 00:07:41;;;;;;;37.37;23.40;;;15.00;99.90;;;;;;5047918;28;20454;-73
2022/10/21 00:10:07;;;;;;;34.17;21.03;;;15.00;99.90;;;;;;5046855;28;20407;-74
2022/10/21 00:12:33;;;;;;;31.83;21.48;;;15.00;99.90;;;;;;5035394;28;20395;-74
2022/10/21 00:14:59;;;;;;;37.70;22.10;;;15.00;99.90;;;;;;5034568;28;20387;-74
2022/10/21 00:17:25;;;;;;;33.25;21.35;;;14.90;99.90;;;;;;5034766;28;20406;-72
2022/10/21 00:19:50;;;;;;;39.90;21.08;;;14.80;99.90;;;;;;5042651;28;20375;-73
2022/10/21 00:22:16;;;;;;;35.60;21.67;;;14.70;99.90;;;;;;5034796;28;20496;-72
2022/10/21 00:24:41;;;;;;;32.67;20.97;;;14.70;99.90;;;;;;5035101;28;20390;-73
2022/10/21 00:27:07;;;;;;;38.00;21.58;;;14.70;99.90;;;;;;5036453;28;20387;-73
2022/10/21 00:29:32;;;;;;;33.30;21.27;;;14.70;99.90;;;;;;5045861;28;20775;-72
2022/10/21 00:31:58;;;;;;;33.20;22.00;;;14.60;99.90;;;;;;5045924;28;20398;-74
2022/10/21 00:34:23;;;;;;;30.90;21.00;;;14.60;99.90;;;;;;5037007;28;20387;-74
2022/10/21 00:36:49;;;;;;;32.10;21.10;;;14.60;99.90;;;;;;5033912;28;20822;-73
2022/10/21 00:39:15;;;;;;;35.60;20.90;;;14.60;99.90;;;;;;5032697;28;20938;-72
2022/10/21 00:41:40;;;;;;;33.10;20.23;;;14.60;99.90;;;;;;5033105;28;20393;-73
2022/10/21 00:44:10;;;;;;;31.87;19.67;;;14.70;99.90;;;;;;5033252;28;20419;-74
2022/10/21 00:46:47;;;;;;;31.77;20.30;;;14.60;99.90;;;;;;5033723;28;20867;-72
2022/10/21 00:49:35;;;;;;;30.77;18.63;;;14.60;99.90;;;;;;5033667;28;20455;-74
2022/10/21 00:52:04;;;;;;;28.33;18.77;;;14.60;99.90;;;;;;5033665;28;20457;-71
2022/10/21 00:54:31;;;;;;;32.67;19.13;;;14.50;99.90;;;;;;5033288;28;20389;-73
2022/10/21 00:56:58;;;;;;;31.70;19.30;;;14.60;99.90;;;;;;5033627;28;20383;-74
2022/10/21 00:59:27;;;;;;;28.35;18.10;;;14.60;99.90;;;;;;5033840;28;20454;-73
2022/10/21 01:01:53;;;;;;;30.75;18.60;;;14.60;99.90;;;;;;5032227;28;20398;-73
2022/10/21 01:04:19;;;;;;;29.10;19.30;;;14.50;99.90;;;;;;5033844;28;20383;-73
2022/10/21 01:06:46;;;;;;;28.42;18.77;;;14.50;99.90;;;;;;5033448;28;20459;-73
2022/10/21 01:09:12;;;;;;;26.60;18.33;;;14.50;99.90;;;;;;5034005;28;20878;-73
2022/10/21 01:11:43;;;;;;;31.83;19.08;;;14.50;99.90;;;;;;5036748;28;20771;-74
2022/10/21 01:14:46;;;;;;;27.35;18.27;;;14.50;99.90;;;;;;5038460;28;20378;-74
2022/10/21 01:18:16;;;;;;;32.65;20.25;;;14.40;99.90;;;;;;5014971;28;20414;-73
2022/10/21 01:21:20;;;;;;;28.52;19.20;;;14.30;99.90;;;;;;4947984;28;20408;-74
2022/10/21 01:24:22;;;;;;;32.50;20.50;;;14.30;99.90;;;;;;5022419;28;20411;-72
2022/10/21 01:27:05;;;;;;;39.95;21.65;;;14.20;99.90;;;;;;5032869;28;20383;-73
2022/10/21 01:29:37;;;;;;;30.20;21.23;;;14.10;99.90;;;;;;5032904;28;20382;-73
2022/10/21 01:32:11;;;;;;;32.42;20.13;;;14.10;99.90;;;;;;5032760;28;20522;-72
2022/10/21 01:34:56;;;;;;;35.20;21.83;;;14.00;99.90;;;;;;5032816;28;20457;-72
2022/10/21 01:37:28;;;;;;;35.78;21.08;;;14.00;99.90;;;;;;5032860;28;20394;-73
2022/10/21 01:39:59;;;;;;;35.50;20.75;;;13.90;99.90;;;;;;5033340;28;20481;-72
2022/10/21 01:42:51;;;;;;;36.28;21.98;;;13.90;99.90;;;;;;5033133;28;20749;-72
2022/10/21 01:45:22;;;;;;;33.85;21.15;;;13.90;99.90;;;;;;5037895;28;20379;-72
2022/10/21 01:48:00;;;;;;;32.65;22.10;;;13.80;99.90;;;;;;5042922;28;20397;-73
2022/10/21 01:50:28;;;;;;;36.80;22.35;;;13.70;99.90;;;;;;5041871;28;20414;-72
2022/10/21 01:52:58;;;;;;;36.25;22.17;;;13.70;99.90;;;;;;5037834;28;20383;-73
2022/10/21 01:55:29;;;;;;;29.50;21.58;;;13.70;99.90;;;;;;5032521;28;20422;-73
2022/10/21 01:58:15;;;;;;;29.55;20.40;;;13.70;99.90;;;;;;5032458;28;20744;-72
2022/10/21 02:00:42;;;;;;;33.22;21.27;;;13.70;99.90;;;;;;5031520;28;20396;-74
2022/10/21 02:03:12;;;;;;;32.60;20.00;;;13.70;99.90;;;;;;5032405;28;20407;-74
2022/10/21 02:05:38;;;;;;;29.27;19.65;;;13.70;99.90;;;;;;5032821;28;20865;-73
2022/10/21 02:08:04;;;;;;;29.10;19.63;;;13.70;99.90;;;;;;5032302;28;20406;-74
2022/10/21 02:10:35;;;;;;;32.80;19.20;;;13.70;99.90;;;;;;5032296;28;20387;-73
2022/10/21 02:13:03;;;;;;;29.73;19.25;;;13.70;99.90;;;;;;5032280;28;20379;-72
2022/10/21 02:15:31;;;;;;;29.37;18.43;;;13.70;99.90;;;;;;5031530;28;20402;-73
2022/10/21 02:18:05;;;;;;;32.70;17.98;;;13.70;99.90;;;;;;5044230;28;20406;-71
2022/10/21 02:20:35;;;;;;;29.98;16.85;;;13.70;99.90;;;;;;5042642;28;20388;-72
2022/10/21 02:23:02;;;;;;;26.75;16.77;;;13.70;99.90;;;;;;5042514;28;20417;-72
2022/10/21 02:25:31;;;;;;;26.42;16.20;;;13.70;99.90;;;;;;5033613;28;20744;-73
2022/10/21 02:27:57;;;;;;;24.30;15.70;;;13.70;99.90;;;;;;5050512;22;20456;-72
2022/10/21 02:30:23;;;;;;;26.43;16.23;;;13.70;99.90;;;;;;5052622;28;20392;-74
2022/10/21 02:33:10;;;;;;;25.83;15.18;;;13.70;99.90;;;;;;5069684;28;20890;-72
2022/10/21 02:35:49;;;;;;;26.13;15.18;;;13.70;99.90;;;;;;5062057;28;20378;-74
2022/10/21 02:38:29;;;;;;;26.17;14.43;;;13.80;99.90;;;;;;5061276;28;20388;-74
2022/10/21 02:41:00;;;;;;;21.75;14.20;;;13.70;99.90;;;;;;5061251;28;20389;-75
2022/10/21 02:43:45;;;;;;;19.88;13.43;;;13.70;99.90;;;;;;5053395;28;20409;-72
2022/10/21 02:46:12;;;;;;;18.85;12.85;;;13.70;99.90;;;;;;5051623;28;20377;-72
2022/10/21 02:48:41;;;;;;;17.20;11.47;;;13.70;99.90;;;;;;5051456;28;20385;-74
2022/10/21 02:51:07;;;;;;;15.98;11.02;;;13.80;99.90;;;;;;5051552;28;20387;-73
2022/10/21 02:53:34;;;;;;;15.95;10.80;;;13.70;99.90;;;;;;5050931;28;20492;-73
2022/10/21 02:56:00;;;;;;;18.02;11.05;;;13.80;99.90;;;;;;5050876;28;20496;-72
2022/10/21 02:58:25;;;;;;;19.98;11.27;;;13.70;99.90;;;;;;5051170;28;20433;-73
2022/10/21 03:00:51;;;;;;;16.77;11.20;;;13.70;99.90;;;;;;5052060;28;20385;-73
2022/10/21 03:03:17;;;;;;;19.02;10.80;;;13.60;99.90;;;;;;5052334;28;20408;-72
2022/10/21 03:05:42;;;;;;;19.42;10.55;;;13.70;99.90;;;;;;5055361;28;20447;-71
2022/10/21 03:08:08;;;;;;;16.08;11.30;;;13.70;99.90;;;;;;5055442;28;20374;-72
2022/10/21 03:10:34;;;;;;;14.90;10.90;;;13.70;99.90;;;;;;5054809;28;20822;-73
2022/10/21 03:12:59;;;;;;;16.07;10.27;;;13.70;99.90;;;;;;5055294;28;20389;-71
2022/10/21 03:15:25;;;;;;;15.27;10.03;;;13.70;99.90;;;;;;5055433;28;20424;-73
2022/10/21 03:17:51;;;;;;;18.95;11.00;;;13.70;99.90;;;;;;5054997;28;20404;-73
2022/10/21 03:20:16;;;;;;;15.53;10.53;;;13.70;99.90;;;;;;5056030;28;20393;-72
2022/10/21 03:22:43;;;;;;;17.67;10.40;;;13.70;99.90;;;;;;5054322;28;20423;-72
2022/10/21 03:25:09;;;;;;;16.40;10.27;;;13.70;99.90;;;;;;5055243;28;20420;-73
2022/10/21 03:27:34;;;;;;;18.38;10.90;;;13.70;99.90;;;;;;5055289;28;20399;-73
2022/10/21 03:30:00;;;;;;;16.25;10.95;;;13.60;99.90;;;;;;5055747;28;20484;-73
2022/10/21 03:32:25;;;;;;;15.00;10.80;;;13.60;99.90;;;;;;5037040;28;20389;-73
2022/10/21 03:34:51;;;;;;;15.83;10.40;;;13.60;99.90;;;;;;5037471;28;20385;-73
2022/10/21 03:37:16;;;;;;;19.90;11.07;;;13.70;99.90;;;;;;5055775;28;20448;-74
2022/10/21 03:39:42;;;;;;;15.15;10.20;;;13.70;99.90;;;;;;5056095;28;20429;-75
2022/10/21 03:42:08;;;;;;;14.05;10.38;;;13.70;99.90;;;;;;5055520;28;20385;-73
2022/10/21 03:44:33;;;;;;;22.37;10.30;;;13.70;99.90;;;;;;5055320;28;21080;-74
2022/10/21 03:46:59;;;;;;;17.10;11.30;;;13.70;99.90;;;;;;5055091;28;20377;-74
2022/10/21 03:49:24;;;;;;;16.75;10.35;;;13.60;99.90;;;;;;5036712;28;20462;-73
2022/10/21 03:51:50;;;;;;;20.23;11.23;;;13.60;99.90;;;;;;5054546;28;20378;-74
2022/10/21 03:54:16;;;;;;;15.20;11.03;;;13.60;99.90;;;;;;5054778;28;20392;-73
2022/10/21 03:56:42;;;;;;;16.77;10.80;;;13.60;99.90;;;;;;5054748;28;20384;-74
2022/10/21 03:59:07;;;;;;;14.55;9.57;;;13.70;99.90;;;;;;5055045;28;20417;-72
2022/10/21 04:01:33;;;;;;;18.92;10.52;;;13.70;99.90;;;;;;5054670;28;20389;-73
2022/10/21 04:03:59;;;;;;;14.67;10.03;;;13.60;99.90;;;;;;5054356;28;20453;-74
2022/10/21 04:06:24;;;;;;;19.23;10.53;;;13.60;99.90;;;;;;5054463;28;20393;-73
2022/10/21 04:08:51;;;;;;;12.90;9.50;;;13.60;99.90;;;;;;5055834;28;20489;-73
2022/10/21 04:11:16;;;;;;;15.25;9.30;;;13.60;99.90;;;;;;5058505;28;20482;-73
2022/10/21 04:13:42;;;;;;;14.63;9.70;;;13.60;99.90;;;;;;5055253;28;20416;-73
2022/10/21 04:16:12;;;;;;;19.83;10.37;;;13.70;99.90;;;;;;5054541;28;20381;-74
2022/10/21 04:18:38;;;;;;;15.65;9.82;;;13.70;99.90;;;;;;5057699;28;20381;-75
2022/10/21 04:21:03;;;;;;;18.05;10.15;;;13.70;99.90;;;;;;5039177;28;20397;-73
2022/10/21 04:23:29;;;;;;;17.40;10.18;;;13.70;99.90;;;;;;5049121;28;20408;-72
2022/10/21 04:25:54;;;;;;;16.73;9.80;;;13.70;99.90;;;;;;5062605;28;20910;-72
2022/10/21 04:28:20;;;;;;;19.50;9.43;;;13.80;99.90;;;;;;5058868;28;20393;-74
2022/10/21 04:30:45;;;;;;;18.35;10.02;;;13.80;99.90;;;;;;5054446;28;20377;-73
2022/10/21 04:33:11;;;;;;;16.75;9.13;;;13.80;99.90;;;;;;5053819;28;20484;-73
2022/10/21 04:35:39;;;;;;;17.43;10.87;;;13.80;99.90;;;;;;5053912;28;20814;-74
2022/10/21 04:38:04;;;;;;;19.30;9.90;;;13.90;99.90;;;;;;5054051;28;20412;-73
2022/10/21 04:40:30;;;;;;;13.80;8.90;;;13.90;99.90;;;;;;5053883;28;20933;-73
2022/10/21 04:42:55;;;;;;;11.63;8.73;;;13.90;99.90;;;;;;5054381;28;20409;-73
2022/10/21 04:45:21;;;;;;;14.07;9.20;;;13.90;99.90;;;;;;5053471;28;20468;-74
2022/10/21 04:47:46;;;;;;;16.13;9.63;;;13.90;99.90;;;;;;5053912;28;20931;-72
2022/10/21 04:50:12;;;;;;;15.30;8.40;;;14.00;99.90;;;;;;5054019;28;20377;-74
2022/10/21 04:52:38;;;;;;;14.13;8.60;;;14.00;99.90;;;;;;5053465;28;20386;-74
2022/10/21 04:55:04;;;;;;;17.30;9.50;;;14.00;99.90;;;;;;5061606;28;20388;-73
2022/10/21 04:57:30;;;;;;;13.52;7.90;;;14.10;99.90;;;;;;5062297;28;20389;-75
2022/10/21 04:59:56;;;;;;;16.63;8.70;;;14.10;99.90;;;;;;5043593;28;20882;-72
2022/10/21 05:02:21;;;;;;;11.30;8.40;;;14.20;99.90;;;;;;5043002;28;20409;-75
2022/10/21 05:04:47;;;;;;;13.65;8.48;;;14.20;99.90;;;;;;5042973;28;20451;-75
2022/10/21 05:07:13;;;;;;;12.20;8.60;;;14.20;99.90;;;;;;5060187;28;20437;-73
2022/10/21 05:09:38;;;;;;;14.13;7.70;;;14.20;99.90;;;;;;5063788;28;20382;-74
2022/10/21 05:12:04;;;;;;;13.60;7.60;;;14.20;99.90;;;;;;5065510;28;20393;-73
2022/10/21 05:14:30;;;;;;;11.05;7.90;;;14.30;99.90;;;;;;5062871;28;20377;-76
2022/10/21 05:16:55;;;;;;;11.17;7.70;;;14.40;99.90;;;;;;5042603;28;20385;-76
2022/10/21 05:19:21;;;;;;;11.77;8.13;;;14.40;99.90;;;;;;5061075;28;20393;-74
2022/10/21 05:21:46;;;;;;;12.90;8.10;;;14.40;99.90;;;;;;5059842;28;20386;-73
2022/10/21 05:24:13;;;;;;;14.32;7.85;;;14.30;99.90;;;;;;5059430;28;20458;-74
2022/10/21 05:26:38;;;;;;;11.05;7.50;;;14.30;99.90;;;;;;5040279;28;20408;-73
2022/10/21 05:29:04;;;;;;;13.50;8.27;;;14.30;99.90;;;;;;5057564;28;20386;-75
2022/10/21 05:31:30;;;;;;;12.13;8.10;;;14.30;99.90;;;;;;5039603;28;20384;-76
2022/10/21 05:33:56;;;;;;;11.93;7.43;;;14.20;99.90;;;;;;5059755;28;20439;-74
2022/10/21 05:36:21;;;;;;;12.60;7.05;;;14.20;99.90;;;;;;5056849;28;20386;-74
2022/10/21 05:38:47;;;;;;;11.80;7.88;;;14.20;99.90;;;;;;5057392;28;20408;-73
2022/10/21 05:41:12;;;;;;;13.90;7.60;;;14.10;99.90;;;;;;5057219;28;20504;-75
2022/10/21 05:43:38;;;;;;;14.00;8.27;;;14.20;99.90;;;;;;5058130;28;20393;-74
2022/10/21 05:46:04;;;;;;;16.00;8.30;;;14.20;99.90;;;;;;5057403;28;20388;-76
2022/10/21 05:48:30;;;;;;;15.10;7.40;;;14.30;99.90;;;;;;5057483;28;20404;-74
2022/10/21 05:50:55;;;;;;;13.27;7.63;;;14.30;99.90;;;;;;5057776;28;20381;-73
2022/10/21 05:53:22;;;;;;;14.17;7.20;;;14.30;99.90;;;;;;5059638;28;20389;-72
2022/10/21 05:56:04;;;;;;;13.03;7.57;;;14.30;99.90;;;;;;5059329;28;20460;-75
2022/10/21 05:58:30;;;;;;;11.95;7.38;;;14.30;99.90;;;;;;5056938;28;20385;-74
2022/10/21 06:00:57;;;;;;;13.88;7.40;;;14.30;99.90;;;;;;5056258;28;20890;-75
2022/10/21 06:03:28;;;;;;;13.82;7.43;;;14.30;99.90;;;;;;5046111;28;20406;-74
2022/10/21 06:05:59;;;;;;;15.27;8.40;;;14.30;99.90;;;;;;5043478;28;20413;-75
2022/10/21 06:08:25;;;;;;;12.25;7.40;;;14.30;99.90;;;;;;5060694;28;20419;-74
2022/10/21 06:11:06;;;;;;;13.80;7.00;;;14.30;99.90;;;;;;5057011;28;20386;-73
2022/10/21 06:13:32;;;;;;;10.63;7.10;;;14.40;99.90;;;;;;5056013;28;20400;-76
2022/10/21 06:15:58;;;;;;;12.93;6.67;;;14.40;99.90;;;;;;5038283;28;20393;-76
2022/10/21 06:18:24;;;;;;;12.45;7.82;;;14.50;99.90;;;;;;5055968;28;20386;-74
2022/10/21 06:20:50;;;;;;;11.73;6.25;;;14.60;99.90;;;;;;5056453;28;20379;-71
2022/10/21 06:23:15;;;;;;;12.80;6.97;;;14.70;99.90;;;;;;5053673;28;20478;-74
2022/10/21 06:25:42;;;;;;;10.10;6.53;;;14.60;99.90;;;;;;5038774;28;20674;-74
2022/10/21 06:28:08;;;;;;;15.10;6.15;;;14.70;99.90;;;;;;5055779;28;20401;-74
2022/10/21 06:30:34;;;;;;;11.63;6.55;;;14.70;99.90;;;;;;5056261;28;20930;-74
2022/10/21 06:32:59;;;;;;;9.38;6.20;;;14.80;99.90;;;;;;5056524;28;20386;-75
2022/10/21 06:35:25;;;;;;;8.60;6.53;;;14.70;99.90;;;;;;5038130;28;20385;-73
2022/10/21 06:37:50;;;;;;;10.20;6.43;;;14.70;99.90;;;;;;5056394;28;20404;-74
2022/10/21 06:40:16;;;;;;;7.90;5.87;;;14.80;99.90;;;;;;5056775;28;20389;-73
2022/10/21 06:42:42;;;;;;;7.65;6.00;;;14.90;99.90;;;;;;5037364;28;20409;-75
2022/10/21 06:45:07;;;;;;;12.02;6.47;;;14.90;99.90;;;;;;5055956;28;20389;-75
2022/10/21 06:47:33;;;;;;;9.48;5.85;;;14.90;99.90;;;;;;5038511;28;20449;-75
2022/10/21 06:50:01;;;;;;;12.47;5.83;;;14.90;99.90;;;;;;5056947;28;20393;-74
2022/10/21 06:52:30;;;;;;;8.88;6.30;;;15.00;99.90;;;;;;5056082;28;20389;-75
2022/10/21 06:54:56;;;;;;;10.30;5.63;;;15.00;99.90;;;;;;5054940;28;20419;-76
2022/10/21 06:57:22;;;;;;;9.23;5.82;;;15.10;99.90;;;;;;5056145;28;20400;-75
2022/10/21 06:59:47;;;;;;;12.00;5.70;;;15.10;99.90;;;;;;5057322;28;20417;-73
2022/10/21 07:02:13;;;;;;;14.57;6.10;;;15.20;99.90;;;;;;5062068;28;20397;-73
2022/10/21 07:04:43;;;;;;;9.90;5.73;;;15.30;99.90;;;;;;5061819;28;20381;-74
2022/10/21 07:07:08;;;;;;;8.97;5.30;;;15.30;99.90;;;;;;5063423;28;20459;-75
2022/10/21 07:09:34;;;;;;;5.53;4.97;;;15.30;99.90;;;;;;5061463;28;20449;-75
2022/10/21 07:12:00;;;;;;;10.40;5.93;;;15.30;99.90;;;;;;5062079;28;20389;-74
2022/10/21 07:14:26;;;;;;;9.98;5.72;;;15.30;99.90;;;;;;5064691;28;20457;-75
2022/10/21 07:16:52;;;;;;;7.40;5.97;;;15.40;99.90;;;;;;5064464;28;20385;-75
2022/10/21 07:19:18;;;;;;;9.30;4.90;;;15.30;99.90;;;;;;5043535;28;20389;-74
2022/10/21 07:21:45;;;;;;;7.43;5.03;;;15.40;99.90;;;;;;5058497;28;20735;-74
2022/10/21 07:24:10;;;;;;;10.93;5.10;;;15.50;99.90;;;;;;5057953;28;20401;-75
2022/10/21 07:26:36;;;;;;;10.00;6.20;;;15.50;99.90;;;;;;5056832;28;20479;-75
2022/10/21 07:29:02;;;;;;;8.73;5.10;;;15.50;99.90;;;;;;5039705;28;20389;-75
2022/10/21 07:31:32;;;;;;;7.20;4.90;;;15.50;99.90;;;;;;5038468;28;20451;-73
2022/10/21 07:33:59;;;;;;;9.52;5.20;;;15.60;99.50;;;;;;5056739;28;20385;-76
2022/10/21 07:36:27;;;;;;;6.10;4.70;;;15.70;97.60;;;;;;5057564;28;20393;-76
2022/10/21 07:38:55;;;;;;;10.57;5.20;;;15.60;98.80;;;;;;5038334;28;20447;-75
2022/10/21 07:41:30;;;;;;;10.70;5.63;;;15.60;99.90;;;;;;5037561;28;20409;-73
2022/10/21 07:43:57;;;;;;;7.30;5.22;;;15.60;99.90;;;;;;5044446;28;20412;-72
2022/10/21 07:46:23;;;;;;;10.10;5.60;;;15.60;99.90;;;;;;5044228;28;20378;-73
2022/10/21 07:48:49;;;;;;;9.15;6.00;;;15.60;99.90;;;;;;5043441;28;20396;-72
2022/10/21 07:51:18;;;;;;;10.82;6.10;;;15.60;99.90;;;;;;5061040;28;20386;-75
2022/10/21 07:53:44;;;;;;;8.25;5.65;;;15.60;99.90;;;;;;5059536;28;20390;-74
2022/10/21 07:56:16;;;;;;;14.15;6.50;;;15.60;99.90;;;;;;5059168;28;20382;-75
2022/10/21 07:58:47;;;;;;;10.48;5.80;;;15.70;99.90;;;;;;5059092;28;20393;-75
2022/10/21 08:01:14;;;;;;;9.10;6.18;;;15.70;99.90;;;;;;5058838;28;20469;-74
2022/10/21 08:03:40;;;;;;;8.50;5.80;;;15.70;99.90;;;;;;5058806;28;20401;-75
2022/10/21 08:06:07;;;;;;;9.43;6.75;;;15.70;99.90;;;;;;5042818;28;20385;-75
2022/10/21 08:08:33;;;;;;;10.50;6.00;;;15.70;99.90;;;;;;5057633;28;20746;-75
2022/10/21 08:11:00;;;;;;;16.00;6.40;;;15.70;99.90;;;;;;5058284;28;20440;-76
2022/10/21 08:13:26;;;;;;;10.35;5.90;;;15.70;99.90;;;;;;5058730;28;20386;-74
2022/10/21 08:15:55;;;;;;;9.63;6.20;;;15.70;99.90;;;;;;5058346;28;20385;-73
2022/10/21 08:18:21;;;;;;;10.88;5.93;;;15.70;99.90;;;;;;5040325;28;20385;-75
2022/10/21 08:20:48;;;;;;;10.25;6.80;;;15.70;99.90;;;;;;5041759;28;20413;-72
2022/10/21 08:23:17;;;;;;;11.63;6.70;;;15.70;99.90;;;;;;5040452;28;20500;-73
2022/10/21 08:25:54;;;;;;;11.40;5.90;;;15.70;99.90;;;;;;5057273;28;20397;-74
2022/10/21 08:28:21;;;;;;;14.32;7.38;;;15.70;99.90;;;;;;5038527;28;20897;-74
2022/10/21 08:30:47;;;;;;;15.35;6.70;;;15.60;99.90;;;;;;5057513;28;20896;-73
2022/10/21 08:33:14;;;;;;;13.53;7.10;;;15.70;99.90;;;;;;5057828;28;20397;-74
2022/10/21 08:35:40;;;;;;;16.97;7.30;;;15.70;99.90;;;;;;5057569;28;20390;-74
2022/10/21 08:38:06;;;;;;;14.67;7.83;;;15.70;99.90;;;;;;5057011;28;20439;-75
2022/10/21 08:40:40;;;;;;;13.70;7.50;;;15.60;99.90;;;;;;5058082;28;20381;-74
2022/10/21 08:43:09;;;;;;;13.75;7.60;;;15.60;99.90;;;;;;5064085;22;20842;-73
2022/10/21 08:46:01;;;;;;;11.70;7.20;;;15.70;99.90;;;;;;5034439;28;20567;-72
2022/10/21 08:48:44;;;;;;;11.90;7.55;;;15.70;99.90;;;;;;5035115;28;20363;-74
2022/10/21 08:51:21;;;;;;;10.40;7.55;;;15.70;99.90;;;;;;5034233;28;20384;-73
2022/10/21 08:53:49;;;;;;;17.95;8.55;;;15.70;99.90;;;;;;5033636;28;20811;-72
2022/10/21 08:56:15;;;;;;;12.30;7.57;;;15.70;99.90;;;;;;5032026;28;20759;-72
2022/10/21 08:58:43;;;;;;;18.67;7.72;;;15.70;99.90;;;;;;5033255;28;20390;-72
2022/10/21 09:01:34;;;;;;;10.73;6.87;;;15.70;99.90;;;;;;5032120;28;20379;-72
2022/10/21 09:04:24;;;;;;;13.55;7.80;;;15.70;99.90;;;;;;5033500;28;20407;-72
2022/10/21 09:07:19;;;;;;;13.47;7.80;;;15.70;99.90;;;;;;5033066;28;20859;-73
2022/10/21 09:10:19;;;;;;;13.60;8.20;;;15.70;99.90;;;;;;5033086;28;20371;-72
2022/10/21 09:13:14;;;;;;;14.82;7.40;;;15.70;99.90;;;;;;5014774;28;21006;-72
2022/10/21 09:16:18;;;;;;;15.00;8.23;;;15.70;99.90;;;;;;5031344;28;20770;-71
2022/10/21 09:19:19;;;;;;;15.07;9.05;;;15.80;99.90;;;;;;5032703;28;20515;-72
2022/10/21 09:22:27;;;;;;;13.45;8.43;;;15.80;99.90;;;;;;5016313;28;20387;-73
2022/10/21 09:25:20;;;;;;;12.80;8.77;;;15.90;99.90;;;;;;5019480;28;20403;-72
2022/10/21 09:27:46;;;;;;;12.52;8.40;;;16.00;99.90;;;;;;5032332;28;20906;-73
2022/10/21 09:30:19;;;;;;;11.80;7.57;;;16.20;99.90;;;;;;5032791;28;20391;-73
2022/10/21 09:32:48;;;;;;;12.95;6.50;;;16.20;99.90;;;;;;5032288;28;20383;-72
2022/10/21 09:35:22;;;;;;;13.13;7.47;;;16.30;99.90;;;;;;5032483;28;20421;-73
2022/10/21 09:38:14;;;;;;;12.95;7.60;;;16.40;99.90;;;;;;5032656;28;20387;-71
2022/10/21 09:40:40;;;;;;;13.73;7.60;;;16.30;99.90;;;;;;5031906;28;20466;-72
2022/10/21 09:43:15;;;;;;;13.68;8.07;;;16.30;99.90;;;;;;5014156;28;20991;-72
2022/10/21 09:45:44;;;;;;;13.50;7.53;;;16.30;99.90;;;;;;5032454;28;20466;-72
2022/10/21 09:48:27;;;;;;;13.88;8.35;;;16.30;99.90;;;;;;5014249;28;20904;-72
2022/10/21 09:50:55;;;;;;;14.00;7.30;;;16.20;99.90;;;;;;5031870;28;20445;-72
2022/10/21 09:53:23;;;;;;;12.27;6.50;;;16.20;99.90;;;;;;5031895;28;20385;-73
2022/10/21 09:55:54;;;;;;;9.45;6.65;;;16.10;99.90;;;;;;5032415;28;20468;-73
2022/10/21 09:59:02;;;;;;;13.10;7.10;;;16.10;99.90;;;;;;5030878;28;20949;-72
2022/10/21 10:01:28;;;;;;;16.05;7.80;;;16.10;99.90;;;;;;5031540;28;20414;-72
2022/10/21 10:03:53;;;;;;;11.25;7.00;;;16.10;99.90;;;;;;5031600;28;20414;-73
2022/10/21 10:06:35;;;;;;;12.98;6.97;;;16.10;99.90;;;;;;5032102;28;20375;-72
2022/10/21 10:09:27;;;;;;;11.90;7.03;;;16.10;99.90;;;;;;5033526;28;20383;-72
2022/10/21 10:12:12;;;;;;;13.53;7.50;;;16.10;99.90;;;;;;5032599;28;20422;-71
2022/10/21 10:14:40;;;;;;;15.00;7.70;;;16.10;99.90;;;;;;5031623;28;20378;-73
2022/10/21 10:17:24;;;;;;;11.50;7.13;;;16.20;99.90;;;;;;5031693;28;20383;-72
2022/10/21 10:20:14;;;;;;;11.93;7.70;;;16.20;99.90;;;;;;5031898;28;20402;-73
2022/10/21 10:23:07;;;;;;;12.30;7.60;;;16.20;99.90;;;;;;5031818;28;20403;-73
2022/10/21 10:25:36;;;;;;;11.13;7.38;;;16.20;99.90;;;;;;5031649;28;20386;-74
2022/10/21 10:28:07;;;;;;;13.68;7.82;;;16.10;99.90;;;;;;5032149;28;20744;-72
2022/10/21 10:30:42;;;;;;;18.48;8.25;;;16.10;99.90;;;;;;5031651;28;20383;-74
2022/10/21 10:33:21;;;;;;;17.63;9.10;;;16.00;99.90;;;;;;5031043;28;20473;-73
2022/10/21 10:36:19;;;;;;;17.33;8.65;;;16.10;99.90;;;;;;5034444;28;20474;-72
2022/10/21 10:38:54;;;;;;;14.80;9.18;;;16.00;99.90;;;;;;5031823;28;20399;-73
2022/10/21 10:41:20;;;;;;;18.63;8.80;;;16.00;99.90;;;;;;5031446;28;20875;-73
2022/10/21 10:43:52;;;;;;;12.80;8.13;;;15.90;99.90;;;;;;5031374;28;20411;-71
2022/10/21 10:46:31;;;;;;;15.75;8.50;;;15.90;99.90;;;;;;5031349;28;20535;-72
2022/10/21 10:49:17;;;;;;;19.23;9.32;;;15.90;99.90;;;;;;5031515;28;20406;-74
2022/10/21 10:51:46;;;;;;;20.70;9.95;;;15.90;99.90;;;;;;5034254;28;20375;-73
2022/10/21 10:54:18;;;;;;;16.30;9.52;;;16.00;99.90;;;;;;5035419;28;20847;-73
2022/10/21 10:56:48;;;;;;;16.48;8.95;;;16.00;99.90;;;;;;5016235;28;20734;-73
2022/10/21 10:59:22;;;;;;;14.23;9.60;;;16.10;99.90;;;;;;5032037;28;20485;-73
2022/10/21 11:02:08;;;;;;;15.00;8.70;;;16.10;99.90;;;;;;5032557;28;20387;-73
2022/10/21 11:04:39;;;;;;;15.05;8.77;;;16.20;99.90;;;;;;5032207;28;20383;-72
2022/10/21 11:07:31;;;;;;;15.73;8.63;;;16.20;99.90;;;;;;5031486;28;20372;-71
2022/10/21 11:10:09;;;;;;;15.30;8.52;;;16.30;99.90;;;;;;5031183;28;20387;-73
2022/10/21 11:12:35;;;;;;;15.48;9.00;;;16.30;99.90;;;;;;5031129;28;20402;-74
2022/10/21 11:15:00;;;;;;;10.80;7.60;;;16.50;99.90;;;;;;5030307;28;20904;-73
2022/10/21 11:17:43;;;;;;;11.63;8.10;;;16.60;99.90;;;;;;5031509;28;20391;-74
2022/10/21 11:20:26;;;;;;;17.58;8.48;;;16.80;99.90;;;;;;5031241;28;20391;-73
2022/10/21 11:23:43;;;;;;;11.82;7.32;;;17.00;99.90;;;;;;5031306;28;20403;-72
2022/10/21 11:26:51;;;;;;;14.02;7.50;;;17.30;99.90;;;;;;5035301;28;20740;-73
2022/10/21 11:29:32;;;;;;;11.55;6.40;;;17.70;99.90;;;;;;4993710;28;20783;-74
2022/10/21 11:32:12;;;;;;;15.17;6.73;;;17.80;98.30;;;;;;5032273;28;20390;-72
2022/10/21 11:34:57;;;;;;;11.43;6.60;;;17.90;94.40;;;;;;5034596;28;20470;-74
2022/10/21 11:37:32;;;;;;;15.50;7.03;;;18.00;90.40;;;;;;5035002;28;20375;-73
2022/10/21 11:40:08;;;;;;;10.87;6.80;;;18.00;91.90;;;;;;5035083;28;20375;-73
2022/10/21 11:42:41;;;;;;;15.70;5.77;;;18.20;87.50;;;;;;5034614;28;20414;-73
2022/10/21 11:45:37;;;;;;;7.47;5.15;;;18.30;87.30;;;;;;5034541;28;20413;-74
2022/10/21 11:48:17;;;;;;;10.98;5.75;;;18.40;84.00;;;;;;5034378;28;20469;-72
2022/10/21 11:50:55;;;;;;;11.30;6.30;;;18.60;82.00;;;;;;5051016;28;20883;-73
2022/10/21 11:53:35;;;;;;;9.23;6.00;;;18.70;80.80;;;;;;5050566;28;20394;-73
2022/10/21 11:56:21;;;;;;;12.50;5.75;;;18.80;77.10;;;;;;5051022;28;20417;-74
2022/10/21 11:59:13;;;;;;;8.48;5.18;;;18.90;76.60;;;;;;5047304;28;20454;-72
2022/10/21 12:02:00;;;;;;;7.65;4.97;;;19.10;75.50;;;;;;5035576;28;20390;-73
2022/10/21 12:04:29;;;;;;;10.23;5.18;;;19.20;72.60;;;;;;5034552;28;20462;-74
2022/10/21 12:07:09;;;;;;;8.40;4.80;;;19.40;72.30;;;;;;5034982;28;20387;-72
2022/10/21 12:10:09;;;;;;;14.25;5.18;;;19.60;68.60;;;;;;5035407;28;20407;-74
2022/10/21 12:12:39;;;;;;;9.63;5.87;;;19.60;66.90;;;;;;5027455;28;20509;-73
2022/10/21 12:15:30;;;;;;;8.38;5.10;;;19.90;66.40;;;;;;5039815;28;20460;-73
2022/10/21 12:17:56;;;;;;;9.38;4.82;;;20.10;64.10;;;;;;5048810;28;20791;-72
2022/10/21 12:20:25;;;;;;;9.32;4.78;;;20.20;62.50;;;;;;5049343;28;20476;-73
2022/10/21 12:22:58;;;;;;;13.30;5.80;;;20.40;59.00;;;;;;5024451;28;20449;-72
2022/10/21 12:25:45;;;;;;;9.15;4.97;;;20.60;58.00;;;;;;5016999;28;20386;-72
2022/10/21 12:28:19;;;;;;;12.13;5.20;;;20.50;58.20;;;;;;5033938;28;20421;-74
2022/10/21 12:30:59;;;;;;;9.60;5.20;;;20.70;57.20;;;;;;5033797;28;20441;-73
2022/10/21 12:33:37;;;;;;;8.95;4.47;;;20.80;57.50;;;;;;5033513;28;20391;-72
2022/10/21 12:36:17;;;;;;;9.23;4.40;;;20.70;57.20;;;;;;5032301;28;20391;-74
2022/10/21 12:38:50;;;;;;;10.27;4.60;;;20.70;54.90;;;;;;5033196;28;20619;-73
2022/10/21 12:41:27;;;;;;;8.02;5.60;;;20.70;56.80;;;;;;5033242;28;20436;-73
2022/10/21 12:44:02;;;;;;;7.68;4.60;;;20.70;56.10;;;;;;5033146;28;20411;-74
2022/10/21 12:46:32;;;;;;;9.07;4.97;;;20.70;56.40;;;;;;5032791;28;20383;-73
2022/10/21 12:49:03;;;;;;;6.47;4.50;;;20.70;56.60;;;;;;5032898;28;20377;-72
2022/10/21 12:51:33;;;;;;;9.15;4.45;;;20.70;55.00;;;;;;5032790;28;20542;-73
2022/10/21 12:54:07;;;;;;;11.57;4.90;;;20.60;54.40;;;;;;5032717;28;20394;-72
2022/10/21 12:56:44;;;;;;;7.32;4.57;;;20.50;55.40;;;;;;5014956;28;20417;-73
2022/10/21 12:59:35;;;;;;;11.90;4.90;;;20.40;57.00;;;;;;5032804;28;20391;-73